Decoded Metar for GCFV (FUERTEVENTURA in SPAIN) (IATA:FUE) | Meteo·Mobile Aviation Weather
aviador You're here:

GCFV Decoded Metar

FUERTEVENTURA in SPAIN
Report Time2019-07-19 19:00:00
UTC Time2019-07-19 19:16:48
Flight Rules mvfr MVFR
Wind360° at 17 kt
W.Decomp.*RWY 01: 16.9 kt HW 1.5 kt LCW
Visibility9999 m
Phenomena:N/A
Clouds:Broken 028 Hf
Expected CloudBase > 2,800 ft AGL from Temp-Dew spread
Ceiling2,800 ft
Temp24°C (ISA +9)
Dew Point17°C (65% RH)
AAT20.3°C
QNH1015 hPa
Density Alt1,325 ft
Elevation75 ft
Report Wrong Elevation
Raw Report
GCFV 191900Z 36017KT 9999 BKN028 24/17 Q1015=

Extra information for GCFV:More info

Metar Taf Metar & Taf Last 4 Metars F.Rules Stats Wind Profile Meteogram Temp Stats Airport Information Weather charts Add Link Nearby VenuesMetar ALERT Operation Metar Decoded Social comments